createdAt,value
2022-09-20T00:04:47.635Z,18.60
2022-09-20T00:15:07.367Z,21.50
2022-09-20T00:25:13.834Z,19.90
2022-09-20T00:36:18.640Z,15.20
2022-09-20T00:46:43.950Z,14.40
2022-09-20T00:57:36.430Z,15.80
2022-09-20T01:08:50.605Z,15.80
2022-09-20T01:20:08.943Z,14.60
2022-09-20T01:30:49.594Z,15.90
2022-09-20T01:41:39.058Z,14.20
2022-09-20T01:53:10.202Z,15.00
2022-09-20T02:04:08.191Z,13.50
2022-09-20T02:14:51.878Z,12.80
2022-09-20T02:25:54.467Z,15.00
2022-09-20T02:36:26.344Z,17.10
2022-09-20T02:47:37.188Z,15.70
2022-09-20T02:58:29.610Z,17.20
2022-09-20T03:09:11.168Z,14.40
2022-09-20T03:19:45.713Z,14.90
2022-09-20T03:30:41.645Z,17.10
2022-09-20T03:41:49.995Z,15.00
2022-09-20T03:52:59.058Z,14.70
2022-09-20T04:03:46.806Z,16.50
2022-09-20T04:14:19.441Z,15.90
2022-09-20T04:25:11.078Z,15.30
2022-09-20T04:36:30.384Z,16.40
2022-09-20T04:47:48.973Z,19.30
2022-09-20T04:58:38.816Z,18.40
2022-09-20T05:09:44.752Z,20.00
2022-09-20T05:20:53.909Z,21.30
2022-09-20T05:32:11.784Z,14.90
2022-09-20T05:43:03.973Z,19.10
2022-09-20T05:54:22.329Z,21.90
2022-09-20T06:05:02.530Z,22.90
2022-09-20T06:15:39.913Z,21.70
2022-09-20T06:25:57.761Z,24.70
2022-09-20T06:36:28.480Z,22.10
2022-09-20T06:46:48.370Z,25.40
2022-09-20T06:57:06.056Z,29.00
2022-09-20T07:07:21.219Z,31.50
2022-09-20T07:17:38.643Z,26.70
2022-09-20T07:27:48.204Z,25.40
2022-09-20T07:38:31.181Z,20.60
2022-09-20T07:48:46.633Z,21.00
2022-09-20T07:58:53.078Z,19.20
2022-09-20T08:09:36.250Z,18.30
2022-09-20T08:19:59.144Z,26.20
2022-09-20T08:30:10.910Z,23.50
2022-09-20T08:40:30.297Z,28.50
2022-09-20T08:51:33.655Z,29.20
2022-09-20T09:02:36.431Z,29.00
2022-09-20T09:13:36.411Z,20.90
2022-09-20T09:24:16.095Z,19.80
2022-09-20T09:34:49.711Z,18.20
2022-09-20T09:45:30.686Z,18.80
2022-09-20T09:55:57.955Z,16.40
2022-09-20T10:07:05.740Z,13.70
2022-09-20T10:17:43.810Z,14.60
2022-09-20T10:28:29.106Z,14.70
2022-09-20T10:39:12.926Z,13.40
2022-09-20T10:49:50.749Z,11.00
2022-09-20T11:00:44.963Z,9.30
2022-09-20T11:11:00.625Z,8.80
2022-09-20T11:21:24.167Z,7.30
2022-09-20T11:31:34.046Z,5.70
2022-09-20T11:41:41.567Z,5.20
2022-09-20T11:52:46.160Z,5.60
2022-09-20T12:02:55.060Z,5.50
2022-09-20T12:13:25.988Z,8.70
2022-09-20T12:23:45.298Z,5.30
2022-09-20T12:34:29.232Z,5.30
2022-09-20T12:44:41.299Z,5.20
2022-09-20T12:55:11.177Z,4.50
2022-09-20T13:05:40.724Z,3.50
2022-09-20T13:16:05.809Z,3.50
2022-09-20T13:26:18.926Z,4.40
2022-09-20T13:36:37.715Z,3.20
2022-09-20T13:46:54.400Z,2.90
2022-09-20T13:57:22.798Z,3.50
2022-09-20T14:07:47.559Z,3.60
2022-09-20T14:17:59.349Z,4.40
2022-09-20T14:28:26.801Z,5.80
2022-09-20T14:38:34.419Z,3.40
2022-09-20T14:48:43.135Z,6.10
2022-09-20T14:59:47.181Z,6.00
2022-09-20T15:09:56.674Z,5.00
2022-09-20T15:20:06.069Z,6.50
2022-09-20T15:30:11.567Z,4.20
2022-09-20T15:40:20.817Z,4.50
2022-09-20T15:50:27.707Z,4.50
2022-09-20T16:00:46.009Z,4.10
2022-09-20T16:10:59.409Z,9.10
2022-09-20T16:21:28.966Z,5.50
2022-09-20T16:31:50.642Z,3.50
2022-09-20T16:42:20.874Z,4.60
2022-09-20T16:52:29.538Z,4.90
2022-09-20T17:02:36.356Z,5.10
2022-09-20T17:12:46.486Z,6.90
2022-09-20T17:23:29.011Z,5.50
2022-09-20T17:33:49.053Z,9.10
2022-09-20T17:43:59.957Z,9.60
2022-09-20T17:54:14.134Z,9.20
2022-09-20T18:04:25.328Z,13.80
2022-09-20T18:14:41.570Z,13.70
2022-09-20T18:24:50.363Z,17.80
2022-09-20T18:35:06.812Z,15.80
2022-09-20T18:45:10.507Z,15.70
2022-09-20T18:55:17.340Z,16.80
2022-09-20T19:05:44.949Z,15.80
2022-09-20T19:16:18.985Z,14.80
2022-09-20T19:26:28.214Z,15.50
2022-09-20T19:37:00.535Z,18.80
2022-09-20T19:48:04.264Z,14.60
2022-09-20T19:58:14.909Z,16.50
2022-09-20T20:08:33.276Z,15.40
2022-09-20T20:19:32.639Z,13.90
2022-09-20T20:29:46.334Z,13.10
2022-09-20T20:40:09.592Z,11.70
2022-09-20T20:50:24.717Z,15.10
2022-09-20T21:01:16.479Z,11.10
2022-09-20T21:12:30.567Z,11.40
2022-09-20T21:23:38.056Z,12.60
2022-09-20T21:34:00.609Z,10.10
2022-09-20T21:44:37.479Z,8.20
2022-09-20T21:55:55.171Z,8.90
2022-09-20T22:06:46.680Z,8.20
2022-09-20T22:16:54.793Z,7.40
2022-09-20T22:27:26.740Z,6.70
2022-09-20T22:37:42.248Z,7.30
2022-09-20T22:48:04.795Z,8.90
2022-09-20T22:58:13.674Z,8.40
2022-09-20T23:08:34.649Z,9.50
2022-09-20T23:18:50.979Z,8.40
2022-09-20T23:29:36.628Z,7.90
2022-09-20T23:39:53.073Z,9.20
2022-09-20T23:50:53.056Z,8.80
